DW8078 Weather Reports


Display with metric or nautical units.
time (UTC)temp
F
wind
direction
speed
MPH
gust
MPH
rain 1hr
in
rain 24hr
in
rain mn
in
humidity
%
barometer
mb
20180425180745 53 320 8.0 13.0 0.00 0.16 0.16 81 1002.8
20180425175243 53 331 3.0 9.0 0.00 0.16 0.16 80 1002.7
20180425173740 54 321 7.0 15.0 0.00 0.16 0.16 80 1002.6
20180425172242 54 322 2.0 8.0 0.00 0.16 0.16 80 1002.5
20180425170741 54 333 8.0 14.0 0.00 0.16 0.16 79 1002.4
20180425165240 54 313 7.0 14.0 0.00 0.16 0.16 78 1002.2
20180425163744 55 318 9.0 15.0 0.01 0.16 0.16 76 1001.9
20180425162238 55 318 19.0 30.0 0.02 0.16 0.16 75 1002.1
20180425160737 57 323 15.0 23.0 0.03 0.16 0.16 73 1001.8
20180425155237 57 295 16.0 26.0 0.04 0.16 0.16 72 1001.3
20180425153737 57 326 20.0 32.0 0.04 0.15 0.15 72 1001.1
20180425152239 56 291 10.0 23.0 0.03 0.14 0.14 75 1001.1
20180425150734 57 290 13.0 21.0 0.02 0.13 0.13 84 1001.6
20180425145235 58 321 3.0 19.0 0.01 0.12 0.12 81 1001.2
20180425143735 59 304 12.0 22.0 0.00 0.11 0.11 78 1001.5
20180425142231 60 316 12.0 25.0 0.00 0.11 0.11 78 1001.3
20180425140731 60 275 14.0 23.0 0.00 0.11 0.11 80 1001.5
20180425135227 59 289 11.0 20.0 0.00 0.11 0.11 81 1001.5
20180425133725 59 271 10.0 19.0 0.00 0.11 0.11 84 1001.7
20180425132220 57 284 12.0 19.0 0.00 0.11 0.11 86 1002.4
20180425130723 56 313 9.0 18.0 0.00 0.11 0.11 87 1002.5
20180425125216 56 267 11.0 16.0 0.00 0.11 0.11 89 1002.5
20180425123711 55 290 9.0 18.0 0.00 0.11 0.11 92 1002.7
20180425122212 55 272 8.0 15.0 0.00 0.11 0.11 89 1002.9
20180425120709 55 254 6.0 16.0 0.02 0.11 0.11 90 1002.8
20180425115208 54 265 9.0 15.0 0.02 0.11 0.11 90 1002.9
20180425113707 54 260 4.0 11.0 0.02 0.11 0.11 90 1003.2
20180425112203 53 268 3.0 11.0 0.03 0.11 0.11 90 1003.4
20180425110702 53 263 5.0 14.0 0.02 0.09 0.09 89 1003.5
20180425105204 53 261 5.0 16.0 0.02 0.09 0.09 89 1003.4
20180425103700 53 290 9.0 22.0 0.01 0.09 0.09 92 1003.6
20180425102159 52 256 5.0 18.0 0.00 0.08 0.08 89 1003.6
20180425100655 52 275 6.0 16.0 0.00 0.08 0.08 89 1003.8
20180425095155 52 240 5.0 14.0 0.00 0.08 0.08 89 1004.0
20180425093652 52 232 7.0 18.0 0.00 0.08 0.08 90 1004.2
20180425092148 51 240 3.0 13.0 0.01 0.08 0.08 90 1004.6
20180425090647 51 275 3.0 14.0 0.01 0.08 0.08 90 1004.6
20180425085145 51 279 5.0 15.0 0.02 0.08 0.08 90 1005.0
20180425083647 51 241 3.0 14.0 0.04 0.08 0.08 91 1005.4
20180425082140 51 244 4.0 15.0 0.04 0.07 0.07 91 1005.8
20180425080637 50 271 8.0 15.0 0.04 0.07 0.07 90 1006.2
20180425075134 51 265 7.0 14.0 0.02 0.06 0.06 90 1006.4
20180425073633 51 264 9.0 14.0 0.01 0.04 0.04 90 1006.5
20180425072132 51 260 7.0 13.0 0.02 0.03 0.03 90 1006.4
20180425070630 50 258 4.0 11.0 0.02 0.03 0.03 90 1006.6
20180425065133 50 232 2.0 9.0 0.02 0.03 0.03 90 1006.8
20180425063626 50 218 0.0 7.0 0.02 0.03 0.03 90 1007.1
20180425062123 50 254 2.0 7.0 0.02 0.02 0.02 89 1007.5
20180425060625 49 249 3.0 10.0 0.01 0.01 0.01 89 1008.0
20180425055120 49 279 5.0 15.0 0.01 0.01 0.01 89 1007.9
20180425053619 49 298 5.0 9.0 0.01 0.01 0.01 89 1008.0
20180425052114 49 246 7.0 13.0 0.00 0.00 0.00 89 1008.2
20180425050613 49 283 4.0 8.0 0.00 0.00 0.00 89 1008.2
20180425045110 49 281 2.0 8.0 0.00 0.00 0.00 89 1008.2
20180425043609 49 265 1.0 7.0 0.00 0.00 0.00 89 1008.2
20180425042108 49 267 1.0 6.0 0.00 0.00 0.00 92 1008.2
20180425040530 49 272 1.0 5.0 0.00 0.00 0.00 88 1008.2
20180425035108 49 271 0.0 7.0 0.00 0.00 0.00 88 1008.3
20180425033603 49 279 1.0 6.0 0.00 0.00 0.00 87 1008.4
20180425032103 50 284 2.0 6.0 0.00 0.00 0.00 87 1008.5
20180425030601 50 280 2.0 6.0 0.00 0.00 0.00 86 1008.5
20180425025101 50 275 3.0 7.0 0.00 0.01 0.00 86 1008.6
20180425023559 50 277 0.0 7.0 0.00 0.01 0.00 86 1008.7
20180425022101 50 291 3.0 7.0 0.00 0.01 0.00 85 1009.0
20180425020556 50 300 4.0 11.0 0.00 0.01 0.00 85 1009.1
20180425015055 50 298 2.0 12.0 0.00 0.01 0.00 86 1009.2
20180425013555 50 294 3.0 7.0 0.00 0.01 0.00 86 1009.4
20180425012051 50 317 4.0 11.0 0.00 0.01 0.00 86 1009.5
20180425010552 50 288 2.0 12.0 0.00 0.01 0.00 86 1009.5
20180425005049 50 303 7.0 13.0 0.00 0.01 0.00 86 1009.5
20180425003553 50 275 6.0 13.0 0.00 0.01 0.00 85 1009.6
20180425002047 50 284 5.0 9.0 0.00 0.01 0.00 85 1009.6
20180425000542 50 292 2.0 7.0 0.00 0.01 0.00 84 1009.7
20180424235046 50 283 3.0 7.0 0.00 0.01 0.00 84 1009.8
20180424233541 50 294 2.0 7.0 0.00 0.01 0.00 84 1009.9
20180424232040 51 315 4.0 9.0 0.00 0.01 0.00 84 1009.8
20180424230503 51 284 3.0 11.0 0.00 0.01 0.00 83 1010.0
20180424225038 51 304 6.0 12.0 0.00 0.01 0.00 83 1009.9
20180424223535 51 303 7.0 14.0 0.00 0.01 0.00 82 1010.1
20180424222033 52 323 7.0 15.0 0.00 0.01 0.00 81 1010.1
20180424220536 52 296 11.0 17.0 0.00 0.01 0.00 81 1010.1
20180424215034 52 312 11.0 18.0 0.00 0.01 0.01 80 1010.1
20180424213533 52 313 10.0 18.0 0.00 0.01 0.01 79 1010.1
20180424212028 53 284 8.0 19.0 0.00 0.01 0.01 78 1010.1
20180424210529 53 271 6.0 17.0 0.00 0.01 0.01 77 1010.1
20180424205030 53 286 9.0 17.0 0.00 0.01 0.01 77 1009.9
20180424203527 53 280 8.0 14.0 0.00 0.01 0.01 77 1010.2
20180424202027 53 295 11.0 15.0 0.00 0.01 0.01 77 1010.1
20180424200530 53 299 8.0 14.0 0.00 0.01 0.01 76 1010.3
20180424195026 54 275 7.0 13.0 0.00 0.01 0.01 75 1010.1
20180424193525 54 303 8.0 16.0 0.00 0.01 0.01 74 1010.3
20180424192033 54 294 4.0 15.0 0.00 0.01 0.01 74 1010.0
20180424190524 55 279 7.0 14.0 0.00 0.01 0.01 73 1009.9
20180424185025 55 288 4.0 12.0 0.00 0.02 0.01 71 1009.7
20180424183524 56 269 6.0 18.0 0.00 0.02 0.01 69 1009.8
20180424182023 56 284 7.0 19.0 0.00 0.02 0.01 68 1009.9